Sunny Link — D5NJ7 — position and weather

sailwx.info

Track history (hours):
 
Tides and Currents Weather Stations Pressure Air Temp Water Temp Dewpoint Dewpoint Depression Visibility Wind Speed Wind Dir Waves Ship Positions

Sunny Link

Last reported at 2018-Jun-23 12:54 UTC. Time now 2018-Jun-23 13:55 UTC.
Position S 33°52' E 017°47'.

Length 289 m; draft 10.9 m.

Type: Cargo ship. MMSI: 636017927.

Date/timePositionNaut miles runAvg speedWind from/ knotsBaromVisibWave heightAir tempDewpointWater temp
2018-Jun-23 12:54S 33°52' E 017°47'410.3
2018-Jun-23 12:30S 33°55' E 017°50'510.3
2018-Jun-23 12:00S 33°59' E 017°55'510.0
2018-Jun-23 11:30S 34°02' E 017°59'5 9.5
2018-Jun-23 11:00S 34°06' E 018°03'5 9.4
2018-Jun-23 10:27S 34°09' E 018°07'4 9.5
2018-Jun-23 10:00S 34°13' E 018°10'5 9.5
2018-Jun-23 09:31S 34°16' E 018°14'5 9.4
2018-Jun-23 09:00S 34°20' E 018°17'5 9.2
2018-Jun-23 08:30S 34°24' E 018°21'5 9.4
2018-Jun-23 08:00S 34°28' E 018°24'4 9.0
2018-Jun-23 07:30S 34°30' E 018°29'4 8.7
2018-Jun-23 07:00S 34°32' E 018°33'4 8.9
2018-Jun-23 06:30S 34°34' E 018°38'5 9.2
2018-Jun-23 06:00S 34°36' E 018°43'5 9.0
2018-Jun-23 05:28S 34°38' E 018°49'4 8.8
2018-Jun-23 05:00S 34°39' E 018°53'5 8.9
2018-Jun-23 04:30S 34°41' E 018°58'5 9.0
2018-Jun-23 03:59S 34°43' E 019°03'  
Track history (hours):
 
Tides and Currents Weather Stations Pressure Air Temp Water Temp Dewpoint Dewpoint Depression Visibility Wind Speed Wind Dir Waves Ship Positions

Sunny Link

Last reported at 2018-Jun-23 12:54 UTC. Time now 2018-Jun-23 13:55 UTC.
Position S 33°52' E 017°47'.

Length 289 m; draft 10.9 m.

Type: Cargo ship. MMSI: 636017927.

Date/timePositionNaut miles runAvg speedWind from/ knotsBaromVisibWave heightAir tempDewpointWater temp
2018-Jun-23 12:54S 33°52' E 017°47'410.3
2018-Jun-23 12:30S 33°55' E 017°50'510.3
2018-Jun-23 12:00S 33°59' E 017°55'510.0
2018-Jun-23 11:30S 34°02' E 017°59'5 9.5
2018-Jun-23 11:00S 34°06' E 018°03'5 9.4
2018-Jun-23 10:27S 34°09' E 018°07'4 9.5
2018-Jun-23 10:00S 34°13' E 018°10'5 9.5
2018-Jun-23 09:31S 34°16' E 018°14'5 9.4
2018-Jun-23 09:00S 34°20' E 018°17'5 9.2
2018-Jun-23 08:30S 34°24' E 018°21'5 9.4
2018-Jun-23 08:00S 34°28' E 018°24'4 9.0
2018-Jun-23 07:30S 34°30' E 018°29'4 8.7
2018-Jun-23 07:00S 34°32' E 018°33'4 8.9
2018-Jun-23 06:30S 34°34' E 018°38'5 9.2
2018-Jun-23 06:00S 34°36' E 018°43'5 9.0
2018-Jun-23 05:28S 34°38' E 018°49'4 8.8
2018-Jun-23 05:00S 34°39' E 018°53'5 8.9
2018-Jun-23 04:30S 34°41' E 018°58'5 9.0
2018-Jun-23 03:59S 34°43' E 019°03'  

Dump ship's entire track history